Главная страница
METAR-TAF:

METAR-TAF

Аэропорты :

Såtenäs, Швеция

широта: 58-26N, долгота: 012-42E, высота над уровнем моря: 54 м

Текущие метеонаблюдения

Эта сводка был подготовлена 38 минут назад, в 13:20 UTC
Ветер 12 Узел от восточно-юго-восточный
Температура 2°C
Влажность 93%
Давление 1016 hPa
Видимость 10 км и более
Отдельные облака на высоте 1400 фута

METAR: ESIB 191320Z 11012KT 9999 SCT014 02/01 Q1016

Время: 14:58 (13:58 UTC)

Прогноз

Эта сводка был подготовлена 2 часа и 58 минут назад, в 11:00 UTC
Прогноз действительный с 19-го 12 UTC до 19-го 16 UTC
Ветер 13 Узел от юго-восточный
Видимость 10 км и более
Отдельные облака на высоте 1000 фута
Рассеянная облачность на высоте 5000 фута
Вероятность 30%
С 19-го 12 UTC до 19-го 16 UTC
Рассеянная облачность на высоте 800 фута

TAF: ESIB 191100Z 1912/1916 130013KT 9999 SCT010 BKN050 PROB30 1912/1916 BKN008 RMK MIL

Метеонаблюдения и прогнозы для более 4000 аэропортов (сводки METAR и TAF).

Имеющиеся станции представлены на карте желтыми и красными точками.

Чтобы увидеть название станции, наведите на нее мышь.

Затем щелкните, чтобы увидеть метеонаблюдения и метеопрогнозы.

Управление картой: чтобы увеличить масштаб, щелкните зеленые кнопки с черным крестиком; чтобы уменьшить масштаб, щелкните зеленую кнопку с тире; для просмотра соседних карт щелкайте зеленые стрелки.


METAR-TAF: